sensor_id;sensor_type;location;lat;lon;timestamp;temperature;humidity
39525;DHT22;25203;50.754;6.978;2022-11-20T00:01:18;3.50;99.90
39525;DHT22;25203;50.754;6.978;2022-11-20T00:03:19;3.50;99.90
39525;DHT22;25203;50.754;6.978;2022-11-20T00:05:19;3.50;99.90
39525;DHT22;25203;50.754;6.978;2022-11-20T00:07:21;3.50;99.90
39525;DHT22;25203;50.754;6.978;2022-11-20T00:09:21;3.50;99.90
39525;DHT22;25203;50.754;6.978;2022-11-20T00:11:24;3.60;99.90
39525;DHT22;25203;50.754;6.978;2022-11-20T00:13:25;3.60;99.90
39525;DHT22;25203;50.754;6.978;2022-11-20T00:15:26;3.60;99.90
39525;DHT22;25203;50.754;6.978;2022-11-20T00:17:26;3.60;99.90
39525;DHT22;25203;50.754;6.978;2022-11-20T00:19:27;3.50;99.90
39525;DHT22;25203;50.754;6.978;2022-11-20T00:21:28;3.40;99.90
39525;DHT22;25203;50.754;6.978;2022-11-20T00:23:29;3.40;99.90
39525;DHT22;25203;50.754;6.978;2022-11-20T00:25:30;3.30;99.90
39525;DHT22;25203;50.754;6.978;2022-11-20T00:27:30;3.20;99.90
39525;DHT22;25203;50.754;6.978;2022-11-20T00:29:31;3.20;99.90
39525;DHT22;25203;50.754;6.978;2022-11-20T00:31:31;3.20;99.90
39525;DHT22;25203;50.754;6.978;2022-11-20T00:33:34;3.20;99.90
39525;DHT22;25203;50.754;6.978;2022-11-20T00:35:34;3.20;99.90
39525;DHT22;25203;50.754;6.978;2022-11-20T00:37:35;3.20;99.90
39525;DHT22;25203;50.754;6.978;2022-11-20T00:39:36;3.20;99.90
39525;DHT22;25203;50.754;6.978;2022-11-20T00:41:36;3.20;99.90
39525;DHT22;25203;50.754;6.978;2022-11-20T00:43:37;3.30;99.90
39525;DHT22;25203;50.754;6.978;2022-11-20T00:45:38;3.20;99.90
39525;DHT22;25203;50.754;6.978;2022-11-20T00:47:38;3.20;99.90
39525;DHT22;25203;50.754;6.978;2022-11-20T00:49:39;3.10;99.90
39525;DHT22;25203;50.754;6.978;2022-11-20T00:51:40;3.10;99.90
39525;DHT22;25203;50.754;6.978;2022-11-20T00:53:40;3.10;99.90
39525;DHT22;25203;50.754;6.978;2022-11-20T00:55:41;3.10;99.90
39525;DHT22;25203;50.754;6.978;2022-11-20T00:57:42;3.00;99.90
39525;DHT22;25203;50.754;6.978;2022-11-20T00:59:42;3.00;99.90
39525;DHT22;25203;50.754;6.978;2022-11-20T01:01:43;3.00;99.90
39525;DHT22;25203;50.754;6.978;2022-11-20T01:03:45;3.00;99.90
39525;DHT22;25203;50.754;6.978;2022-11-20T01:05:47;2.90;99.90
39525;DHT22;25203;50.754;6.978;2022-11-20T01:07:47;3.00;99.90
39525;DHT22;25203;50.754;6.978;2022-11-20T01:09:48;3.00;99.90
39525;DHT22;25203;50.754;6.978;2022-11-20T01:11:48;2.90;99.90
39525;DHT22;25203;50.754;6.978;2022-11-20T01:13:51;2.90;99.90
39525;DHT22;25203;50.754;6.978;2022-11-20T01:15:51;2.90;99.90
39525;DHT22;25203;50.754;6.978;2022-11-20T01:17:52;2.80;99.90
39525;DHT22;25203;50.754;6.978;2022-11-20T01:19:52;2.90;99.90
39525;DHT22;25203;50.754;6.978;2022-11-20T01:21:54;2.90;99.90
39525;DHT22;25203;50.754;6.978;2022-11-20T01:23:55;3.00;99.90
39525;DHT22;25203;50.754;6.978;2022-11-20T01:25:55;2.90;99.90
39525;DHT22;25203;50.754;6.978;2022-11-20T01:27:56;3.00;99.90
39525;DHT22;25203;50.754;6.978;2022-11-20T01:29:57;3.00;99.90
39525;DHT22;25203;50.754;6.978;2022-11-20T01:31:57;3.00;99.90
39525;DHT22;25203;50.754;6.978;2022-11-20T01:34:00;3.00;99.90
39525;DHT22;25203;50.754;6.978;2022-11-20T01:36:06;3.10;99.90
39525;DHT22;25203;50.754;6.978;2022-11-20T01:38:06;3.10;99.90
39525;DHT22;25203;50.754;6.978;2022-11-20T01:40:07;3.10;99.90
39525;DHT22;25203;50.754;6.978;2022-11-20T01:42:08;3.10;99.90
39525;DHT22;25203;50.754;6.978;2022-11-20T01:44:56;3.10;99.90
39525;DHT22;25203;50.754;6.978;2022-11-20T01:47:00;3.10;99.90
39525;DHT22;25203;50.754;6.978;2022-11-20T01:49:05;3.20;99.90
39525;DHT22;25203;50.754;6.978;2022-11-20T01:51:24;3.20;99.90
39525;DHT22;25203;50.754;6.978;2022-11-20T01:53:31;3.20;99.90
39525;DHT22;25203;50.754;6.978;2022-11-20T01:55:39;3.20;99.90
39525;DHT22;25203;50.754;6.978;2022-11-20T01:57:42;3.30;99.90
39525;DHT22;25203;50.754;6.978;2022-11-20T01:59:49;3.30;99.90
39525;DHT22;25203;50.754;6.978;2022-11-20T02:01:51;3.30;99.90
39525;DHT22;25203;50.754;6.978;2022-11-20T02:03:52;3.40;99.90
39525;DHT22;25203;50.754;6.978;2022-11-20T02:08:12;3.40;99.90
39525;DHT22;25203;50.754;6.978;2022-11-20T02:10:13;3.30;99.90
39525;DHT22;25203;50.754;6.978;2022-11-20T02:12:14;3.20;99.90
39525;DHT22;25203;50.754;6.978;2022-11-20T02:14:34;3.20;99.90
39525;DHT22;25203;50.754;6.978;2022-11-20T02:16:43;3.10;99.90
39525;DHT22;25203;50.754;6.978;2022-11-20T02:19:35;3.10;99.90
39525;DHT22;25203;50.754;6.978;2022-11-20T02:21:37;3.10;99.90
39525;DHT22;25203;50.754;6.978;2022-11-20T02:26:06;3.10;99.90
39525;DHT22;25203;50.754;6.978;2022-11-20T02:28:07;3.10;99.90
39525;DHT22;25203;50.754;6.978;2022-11-20T02:30:09;3.10;99.90
39525;DHT22;25203;50.754;6.978;2022-11-20T02:32:32;3.10;99.90
39525;DHT22;25203;50.754;6.978;2022-11-20T02:34:33;3.10;99.90
39525;DHT22;25203;50.754;6.978;2022-11-20T02:36:35;3.10;99.90
39525;DHT22;25203;50.754;6.978;2022-11-20T02:38:36;3.20;99.90
39525;DHT22;25203;50.754;6.978;2022-11-20T02:40:37;3.10;99.90
39525;DHT22;25203;50.754;6.978;2022-11-20T02:42:38;3.10;99.90
39525;DHT22;25203;50.754;6.978;2022-11-20T02:44:38;3.00;99.90
39525;DHT22;25203;50.754;6.978;2022-11-20T02:46:39;3.00;99.90
39525;DHT22;25203;50.754;6.978;2022-11-20T02:48:39;3.00;99.90
39525;DHT22;25203;50.754;6.978;2022-11-20T02:50:40;3.00;99.90
39525;DHT22;25203;50.754;6.978;2022-11-20T02:52:41;2.90;99.90
39525;DHT22;25203;50.754;6.978;2022-11-20T02:54:42;2.90;99.90
39525;DHT22;25203;50.754;6.978;2022-11-20T02:56:43;2.90;99.90
39525;DHT22;25203;50.754;6.978;2022-11-20T02:58:43;2.90;99.90
39525;DHT22;25203;50.754;6.978;2022-11-20T03:00:44;2.90;99.90
39525;DHT22;25203;50.754;6.978;2022-11-20T03:02:45;2.90;99.90
39525;DHT22;25203;50.754;6.978;2022-11-20T03:04:45;2.90;99.90
39525;DHT22;25203;50.754;6.978;2022-11-20T03:06:46;2.90;99.90
39525;DHT22;25203;50.754;6.978;2022-11-20T03:08:46;2.90;99.90
39525;DHT22;25203;50.754;6.978;2022-11-20T03:10:47;2.90;99.90
39525;DHT22;25203;50.754;6.978;2022-11-20T03:12:53;2.90;99.90
39525;DHT22;25203;50.754;6.978;2022-11-20T03:14:54;3.00;99.90
39525;DHT22;25203;50.754;6.978;2022-11-20T03:16:55;3.00;99.90
39525;DHT22;25203;50.754;6.978;2022-11-20T03:18:56;3.00;99.90
39525;DHT22;25203;50.754;6.978;2022-11-20T03:20:57;3.00;99.90
39525;DHT22;25203;50.754;6.978;2022-11-20T03:22:59;3.10;99.90
39525;DHT22;25203;50.754;6.978;2022-11-20T03:25:00;3.10;99.90
39525;DHT22;25203;50.754;6.978;2022-11-20T03:27:00;3.10;99.90
39525;DHT22;25203;50.754;6.978;2022-11-20T03:29:03;3.20;99.90
39525;DHT22;25203;50.754;6.978;2022-11-20T03:31:12;3.20;99.90
39525;DHT22;25203;50.754;6.978;2022-11-20T03:33:13;3.10;99.90
39525;DHT22;25203;50.754;6.978;2022-11-20T03:35:14;3.20;99.90
39525;DHT22;25203;50.754;6.978;2022-11-20T03:37:14;3.20;99.90
39525;DHT22;25203;50.754;6.978;2022-11-20T03:39:15;3.20;99.90
39525;DHT22;25203;50.754;6.978;2022-11-20T03:41:21;3.20;99.90
39525;DHT22;25203;50.754;6.978;2022-11-20T03:43:22;3.20;99.90
39525;DHT22;25203;50.754;6.978;2022-11-20T03:45:22;3.10;99.90
39525;DHT22;25203;50.754;6.978;2022-11-20T03:47:23;3.10;99.90
39525;DHT22;25203;50.754;6.978;2022-11-20T03:49:23;3.10;99.90
39525;DHT22;25203;50.754;6.978;2022-11-20T03:51:26;3.10;99.90
39525;DHT22;25203;50.754;6.978;2022-11-20T03:53:27;3.10;99.90
39525;DHT22;25203;50.754;6.978;2022-11-20T03:55:27;3.10;99.90
39525;DHT22;25203;50.754;6.978;2022-11-20T03:57:28;3.10;99.90
39525;DHT22;25203;50.754;6.978;2022-11-20T03:59:29;3.10;99.90
39525;DHT22;25203;50.754;6.978;2022-11-20T04:01:34;3.10;99.90
39525;DHT22;25203;50.754;6.978;2022-11-20T04:03:36;3.10;99.90
39525;DHT22;25203;50.754;6.978;2022-11-20T04:05:37;3.10;99.90
39525;DHT22;25203;50.754;6.978;2022-11-20T04:07:38;3.10;99.90
39525;DHT22;25203;50.754;6.978;2022-11-20T04:09:38;3.10;99.90
39525;DHT22;25203;50.754;6.978;2022-11-20T04:11:40;3.10;99.90
39525;DHT22;25203;50.754;6.978;2022-11-20T04:13:41;3.00;99.90
39525;DHT22;25203;50.754;6.978;2022-11-20T04:15:42;3.00;99.90
39525;DHT22;25203;50.754;6.978;2022-11-20T04:17:43;3.00;99.90
39525;DHT22;25203;50.754;6.978;2022-11-20T04:19:43;3.00;99.90
39525;DHT22;25203;50.754;6.978;2022-11-20T04:21:44;3.00;99.90
39525;DHT22;25203;50.754;6.978;2022-11-20T04:23:45;3.00;99.90
39525;DHT22;25203;50.754;6.978;2022-11-20T04:25:45;3.00;99.90
39525;DHT22;25203;50.754;6.978;2022-11-20T04:27:46;3.00;99.90
39525;DHT22;25203;50.754;6.978;2022-11-20T04:29:46;3.00;99.90
39525;DHT22;25203;50.754;6.978;2022-11-20T04:31:47;3.00;99.90
39525;DHT22;25203;50.754;6.978;2022-11-20T04:33:48;3.00;99.90
39525;DHT22;25203;50.754;6.978;2022-11-20T04:35:48;3.10;99.90
39525;DHT22;25203;50.754;6.978;2022-11-20T04:37:51;3.10;99.90
39525;DHT22;25203;50.754;6.978;2022-11-20T04:39:52;3.10;99.90
39525;DHT22;25203;50.754;6.978;2022-11-20T04:41:53;3.00;99.90
39525;DHT22;25203;50.754;6.978;2022-11-20T04:44:13;3.00;99.90
39525;DHT22;25203;50.754;6.978;2022-11-20T04:46:15;3.00;99.90
39525;DHT22;25203;50.754;6.978;2022-11-20T04:48:15;3.10;99.90
39525;DHT22;25203;50.754;6.978;2022-11-20T04:50:16;3.10;99.90
39525;DHT22;25203;50.754;6.978;2022-11-20T04:52:17;3.10;99.90
39525;DHT22;25203;50.754;6.978;2022-11-20T04:54:17;3.20;99.90
39525;DHT22;25203;50.754;6.978;2022-11-20T04:56:18;3.20;99.90
39525;DHT22;25203;50.754;6.978;2022-11-20T04:58:19;3.20;99.90
39525;DHT22;25203;50.754;6.978;2022-11-20T05:00:19;3.20;99.90
39525;DHT22;25203;50.754;6.978;2022-11-20T05:02:20;3.20;99.90
39525;DHT22;25203;50.754;6.978;2022-11-20T05:04:20;3.20;99.90
39525;DHT22;25203;50.754;6.978;2022-11-20T05:06:21;3.20;99.90
39525;DHT22;25203;50.754;6.978;2022-11-20T05:08:22;3.10;99.90
39525;DHT22;25203;50.754;6.978;2022-11-20T05:10:26;3.20;99.90
39525;DHT22;25203;50.754;6.978;2022-11-20T05:12:27;3.10;99.90
39525;DHT22;25203;50.754;6.978;2022-11-20T05:14:29;3.20;99.90
39525;DHT22;25203;50.754;6.978;2022-11-20T05:16:29;3.20;99.90
39525;DHT22;25203;50.754;6.978;2022-11-20T05:18:30;3.20;99.90
39525;DHT22;25203;50.754;6.978;2022-11-20T05:20:31;3.20;99.90
39525;DHT22;25203;50.754;6.978;2022-11-20T05:22:31;3.20;99.90
39525;DHT22;25203;50.754;6.978;2022-11-20T05:24:32;3.20;99.90
39525;DHT22;25203;50.754;6.978;2022-11-20T05:26:32;3.20;99.90
39525;DHT22;25203;50.754;6.978;2022-11-20T05:28:33;3.20;99.90
39525;DHT22;25203;50.754;6.978;2022-11-20T05:30:34;3.20;99.90
39525;DHT22;25203;50.754;6.978;2022-11-20T05:32:34;3.20;99.90
39525;DHT22;25203;50.754;6.978;2022-11-20T05:34:36;3.30;99.90
39525;DHT22;25203;50.754;6.978;2022-11-20T05:36:36;3.30;99.90
39525;DHT22;25203;50.754;6.978;2022-11-20T05:38:37;3.20;99.90
39525;DHT22;25203;50.754;6.978;2022-11-20T05:40:38;3.30;99.90
39525;DHT22;25203;50.754;6.978;2022-11-20T05:42:38;3.30;99.90
39525;DHT22;25203;50.754;6.978;2022-11-20T05:44:39;3.30;99.90
39525;DHT22;25203;50.754;6.978;2022-11-20T05:46:40;3.30;99.90
39525;DHT22;25203;50.754;6.978;2022-11-20T05:48:41;3.30;99.90
39525;DHT22;25203;50.754;6.978;2022-11-20T05:50:42;3.30;99.90
39525;DHT22;25203;50.754;6.978;2022-11-20T05:52:43;3.30;99.90
39525;DHT22;25203;50.754;6.978;2022-11-20T05:54:45;3.30;99.90
39525;DHT22;25203;50.754;6.978;2022-11-20T05:56:45;3.30;99.90
39525;DHT22;25203;50.754;6.978;2022-11-20T05:58:47;3.30;99.90
39525;DHT22;25203;50.754;6.978;2022-11-20T06:00:48;3.30;99.90
39525;DHT22;25203;50.754;6.978;2022-11-20T06:02:49;3.30;99.90
39525;DHT22;25203;50.754;6.978;2022-11-20T06:04:49;3.30;99.90
39525;DHT22;25203;50.754;6.978;2022-11-20T06:06:50;3.40;99.90
39525;DHT22;25203;50.754;6.978;2022-11-20T06:08:51;3.40;99.90
39525;DHT22;25203;50.754;6.978;2022-11-20T06:10:51;3.40;99.90
39525;DHT22;25203;50.754;6.978;2022-11-20T06:12:52;3.40;99.90
39525;DHT22;25203;50.754;6.978;2022-11-20T06:14:52;3.40;99.90
39525;DHT22;25203;50.754;6.978;2022-11-20T06:16:53;3.40;99.90
39525;DHT22;25203;50.754;6.978;2022-11-20T06:18:54;3.40;99.90
39525;DHT22;25203;50.754;6.978;2022-11-20T06:21:03;3.40;99.90
39525;DHT22;25203;50.754;6.978;2022-11-20T06:23:03;3.40;99.90
39525;DHT22;25203;50.754;6.978;2022-11-20T06:25:04;3.50;99.90
39525;DHT22;25203;50.754;6.978;2022-11-20T06:27:05;3.50;99.90
39525;DHT22;25203;50.754;6.978;2022-11-20T06:29:05;3.50;99.90
39525;DHT22;25203;50.754;6.978;2022-11-20T06:31:07;3.50;99.90
39525;DHT22;25203;50.754;6.978;2022-11-20T06:33:07;3.50;99.90
39525;DHT22;25203;50.754;6.978;2022-11-20T06:35:08;3.50;99.90
39525;DHT22;25203;50.754;6.978;2022-11-20T06:37:09;3.50;99.90
39525;DHT22;25203;50.754;6.978;2022-11-20T06:39:09;3.50;99.90
39525;DHT22;25203;50.754;6.978;2022-11-20T06:41:12;3.50;99.90
39525;DHT22;25203;50.754;6.978;2022-11-20T06:43:13;3.50;99.90
39525;DHT22;25203;50.754;6.978;2022-11-20T06:45:13;3.50;99.90
39525;DHT22;25203;50.754;6.978;2022-11-20T06:47:14;3.50;99.90
39525;DHT22;25203;50.754;6.978;2022-11-20T06:49:14;3.60;99.90
39525;DHT22;25203;50.754;6.978;2022-11-20T06:51:15;3.60;99.90
39525;DHT22;25203;50.754;6.978;2022-11-20T06:53:16;3.50;99.90
39525;DHT22;25203;50.754;6.978;2022-11-20T06:55:17;3.60;99.90
39525;DHT22;25203;50.754;6.978;2022-11-20T06:57:18;3.60;99.90
39525;DHT22;25203;50.754;6.978;2022-11-20T06:59:18;3.60;99.90
39525;DHT22;25203;50.754;6.978;2022-11-20T07:01:19;3.60;99.90
39525;DHT22;25203;50.754;6.978;2022-11-20T07:03:19;3.60;99.90
39525;DHT22;25203;50.754;6.978;2022-11-20T07:05:20;3.60;99.90
39525;DHT22;25203;50.754;6.978;2022-11-20T07:07:20;3.60;99.90
39525;DHT22;25203;50.754;6.978;2022-11-20T07:09:21;3.50;99.90
39525;DHT22;25203;50.754;6.978;2022-11-20T07:11:22;3.50;99.90
39525;DHT22;25203;50.754;6.978;2022-11-20T07:13:22;3.50;99.90
39525;DHT22;25203;50.754;6.978;2022-11-20T07:15:24;3.60;99.90
39525;DHT22;25203;50.754;6.978;2022-11-20T07:17:25;3.60;99.90
39525;DHT22;25203;50.754;6.978;2022-11-20T07:19:25;3.60;99.90
39525;DHT22;25203;50.754;6.978;2022-11-20T07:21:26;3.70;99.90
39525;DHT22;25203;50.754;6.978;2022-11-20T07:23:27;3.60;99.90
39525;DHT22;25203;50.754;6.978;2022-11-20T07:25:28;3.60;99.90
39525;DHT22;25203;50.754;6.978;2022-11-20T07:27:29;3.60;99.90
39525;DHT22;25203;50.754;6.978;2022-11-20T07:29:30;3.70;99.90
39525;DHT22;25203;50.754;6.978;2022-11-20T07:31:30;3.60;99.90
39525;DHT22;25203;50.754;6.978;2022-11-20T07:33:31;3.60;99.90
39525;DHT22;25203;50.754;6.978;2022-11-20T07:35:32;3.60;99.90
39525;DHT22;25203;50.754;6.978;2022-11-20T07:37:36;3.60;99.90
39525;DHT22;25203;50.754;6.978;2022-11-20T07:39:36;3.60;99.90
39525;DHT22;25203;50.754;6.978;2022-11-20T07:41:37;3.70;99.90
39525;DHT22;25203;50.754;6.978;2022-11-20T07:43:37;3.70;99.90
39525;DHT22;25203;50.754;6.978;2022-11-20T07:45:38;3.70;99.90
39525;DHT22;25203;50.754;6.978;2022-11-20T07:47:39;3.70;99.90
39525;DHT22;25203;50.754;6.978;2022-11-20T07:49:39;3.80;99.90
39525;DHT22;25203;50.754;6.978;2022-11-20T07:51:40;3.80;99.90
39525;DHT22;25203;50.754;6.978;2022-11-20T07:53:40;3.80;99.90
39525;DHT22;25203;50.754;6.978;2022-11-20T07:55:41;3.80;99.90
39525;DHT22;25203;50.754;6.978;2022-11-20T07:57:42;3.80;99.90
39525;DHT22;25203;50.754;6.978;2022-11-20T07:59:42;3.80;99.90
39525;DHT22;25203;50.754;6.978;2022-11-20T08:01:43;3.90;99.90
39525;DHT22;25203;50.754;6.978;2022-11-20T08:03:43;3.90;99.90
39525;DHT22;25203;50.754;6.978;2022-11-20T08:05:44;3.90;99.90
39525;DHT22;25203;50.754;6.978;2022-11-20T08:07:45;3.90;99.90
39525;DHT22;25203;50.754;6.978;2022-11-20T08:09:45;3.90;99.90
39525;DHT22;25203;50.754;6.978;2022-11-20T08:11:46;4.00;99.90
39525;DHT22;25203;50.754;6.978;2022-11-20T08:14:05;3.90;99.90
39525;DHT22;25203;50.754;6.978;2022-11-20T08:16:11;3.90;99.90
39525;DHT22;25203;50.754;6.978;2022-11-20T08:18:12;3.90;99.90
39525;DHT22;25203;50.754;6.978;2022-11-20T08:20:13;3.90;99.90
39525;DHT22;25203;50.754;6.978;2022-11-20T08:22:13;4.00;99.90
39525;DHT22;25203;50.754;6.978;2022-11-20T08:24:14;4.00;99.90
39525;DHT22;25203;50.754;6.978;2022-11-20T08:26:15;4.10;99.90
39525;DHT22;25203;50.754;6.978;2022-11-20T08:28:15;4.10;99.90
39525;DHT22;25203;50.754;6.978;2022-11-20T08:30:16;4.10;99.90
39525;DHT22;25203;50.754;6.978;2022-11-20T08:32:16;4.10;99.90
39525;DHT22;25203;50.754;6.978;2022-11-20T08:34:17;4.10;99.90
39525;DHT22;25203;50.754;6.978;2022-11-20T08:36:19;4.20;99.90
39525;DHT22;25203;50.754;6.978;2022-11-20T08:38:20;4.20;99.90
39525;DHT22;25203;50.754;6.978;2022-11-20T08:40:20;4.30;99.90
39525;DHT22;25203;50.754;6.978;2022-11-20T08:42:21;4.40;99.90
39525;DHT22;25203;50.754;6.978;2022-11-20T08:44:21;4.50;99.90
39525;DHT22;25203;50.754;6.978;2022-11-20T08:46:24;4.60;99.90
39525;DHT22;25203;50.754;6.978;2022-11-20T08:48:25;4.60;99.90
39525;DHT22;25203;50.754;6.978;2022-11-20T08:50:25;4.60;99.90
39525;DHT22;25203;50.754;6.978;2022-11-20T08:52:26;4.60;99.90
39525;DHT22;25203;50.754;6.978;2022-11-20T08:54:27;4.50;99.90
39525;DHT22;25203;50.754;6.978;2022-11-20T08:56:27;4.40;99.90
39525;DHT22;25203;50.754;6.978;2022-11-20T08:58:28;4.30;99.90
39525;DHT22;25203;50.754;6.978;2022-11-20T09:00:29;4.30;99.90
39525;DHT22;25203;50.754;6.978;2022-11-20T09:02:29;4.30;99.90
39525;DHT22;25203;50.754;6.978;2022-11-20T09:04:30;4.30;99.90
39525;DHT22;25203;50.754;6.978;2022-11-20T09:06:31;4.30;99.90
39525;DHT22;25203;50.754;6.978;2022-11-20T09:08:31;4.30;99.90
39525;DHT22;25203;50.754;6.978;2022-11-20T09:10:32;4.30;99.90
39525;DHT22;25203;50.754;6.978;2022-11-20T09:12:33;4.40;99.90
39525;DHT22;25203;50.754;6.978;2022-11-20T09:14:33;4.50;99.90
39525;DHT22;25203;50.754;6.978;2022-11-20T09:16:34;4.40;99.90
39525;DHT22;25203;50.754;6.978;2022-11-20T09:18:35;4.50;99.90
39525;DHT22;25203;50.754;6.978;2022-11-20T09:20:37;4.50;99.90
39525;DHT22;25203;50.754;6.978;2022-11-20T09:22:39;4.60;99.90
39525;DHT22;25203;50.754;6.978;2022-11-20T09:24:40;4.70;99.90
39525;DHT22;25203;50.754;6.978;2022-11-20T09:26:43;4.80;99.90
39525;DHT22;25203;50.754;6.978;2022-11-20T09:28:43;4.70;99.90
39525;DHT22;25203;50.754;6.978;2022-11-20T09:30:44;4.70;99.90
39525;DHT22;25203;50.754;6.978;2022-11-20T09:32:45;4.60;99.90
39525;DHT22;25203;50.754;6.978;2022-11-20T09:34:45;4.70;99.90
39525;DHT22;25203;50.754;6.978;2022-11-20T09:36:46;4.70;99.90
39525;DHT22;25203;50.754;6.978;2022-11-20T09:38:47;4.70;99.90
39525;DHT22;25203;50.754;6.978;2022-11-20T09:40:56;4.60;99.90
39525;DHT22;25203;50.754;6.978;2022-11-20T09:43:15;4.60;99.90
39525;DHT22;25203;50.754;6.978;2022-11-20T09:45:24;4.60;99.90
39525;DHT22;25203;50.754;6.978;2022-11-20T09:52:22;5.20;99.90
39525;DHT22;25203;50.754;6.978;2022-11-20T09:54:26;5.30;99.90
39525;DHT22;25203;50.754;6.978;2022-11-20T09:56:29;5.50;99.90
39525;DHT22;25203;50.754;6.978;2022-11-20T09:58:45;5.70;99.90
39525;DHT22;25203;50.754;6.978;2022-11-20T10:00:48;6.30;99.90
39525;DHT22;25203;50.754;6.978;2022-11-20T10:03:05;7.10;99.90
39525;DHT22;25203;50.754;6.978;2022-11-20T10:05:28;7.70;99.90
39525;DHT22;25203;50.754;6.978;2022-11-20T10:09:40;7.80;99.90
39525;DHT22;25203;50.754;6.978;2022-11-20T10:17:04;7.30;99.90
39525;DHT22;25203;50.754;6.978;2022-11-20T10:19:47;6.90;99.90
39525;DHT22;25203;50.754;6.978;2022-11-20T10:29:17;6.00;99.90
39525;DHT22;25203;50.754;6.978;2022-11-20T10:31:29;5.90;99.90
39525;DHT22;25203;50.754;6.978;2022-11-20T10:33:35;5.80;99.90
39525;DHT22;25203;50.754;6.978;2022-11-20T10:36:28;5.70;99.90
39525;DHT22;25203;50.754;6.978;2022-11-20T10:38:54;5.80;99.90
39525;DHT22;25203;50.754;6.978;2022-11-20T10:42:46;5.80;99.90
39525;DHT22;25203;50.754;6.978;2022-11-20T10:44:53;5.70;99.90
39525;DHT22;25203;50.754;6.978;2022-11-20T10:47:03;5.70;99.90
39525;DHT22;25203;50.754;6.978;2022-11-20T10:49:10;5.60;99.90
39525;DHT22;25203;50.754;6.978;2022-11-20T10:53:45;5.50;99.90
39525;DHT22;25203;50.754;6.978;2022-11-20T10:55:55;5.50;99.90
39525;DHT22;25203;50.754;6.978;2022-11-20T10:58:48;5.50;99.90
39525;DHT22;25203;50.754;6.978;2022-11-20T11:00:41;5.40;99.90
39525;DHT22;25203;50.754;6.978;2022-11-20T11:02:47;5.40;99.90
39525;DHT22;25203;50.754;6.978;2022-11-20T11:04:52;5.40;99.90
39525;DHT22;25203;50.754;6.978;2022-11-20T11:06:57;5.50;99.90
39525;DHT22;25203;50.754;6.978;2022-11-20T11:09:02;5.60;99.90
39525;DHT22;25203;50.754;6.978;2022-11-20T11:11:23;5.70;99.90
39525;DHT22;25203;50.754;6.978;2022-11-20T11:13:27;5.70;99.90
39525;DHT22;25203;50.754;6.978;2022-11-20T11:15:39;5.70;99.90
39525;DHT22;25203;50.754;6.978;2022-11-20T11:17:46;5.70;99.90
39525;DHT22;25203;50.754;6.978;2022-11-20T11:20:00;5.80;99.90
39525;DHT22;25203;50.754;6.978;2022-11-20T11:22:11;5.80;99.90
39525;DHT22;25203;50.754;6.978;2022-11-20T11:24:28;5.80;99.90
39525;DHT22;25203;50.754;6.978;2022-11-20T11:26:29;5.70;99.90
39525;DHT22;25203;50.754;6.978;2022-11-20T11:28:30;5.70;99.90
39525;DHT22;25203;50.754;6.978;2022-11-20T11:30:42;5.60;99.90
39525;DHT22;25203;50.754;6.978;2022-11-20T11:32:43;5.60;99.90
39525;DHT22;25203;50.754;6.978;2022-11-20T11:34:45;5.50;99.90
39525;DHT22;25203;50.754;6.978;2022-11-20T11:36:59;5.40;99.90
39525;DHT22;25203;50.754;6.978;2022-11-20T11:39:02;5.40;99.90
39525;DHT22;25203;50.754;6.978;2022-11-20T11:41:09;5.40;99.90
39525;DHT22;25203;50.754;6.978;2022-11-20T11:43:22;5.40;99.90
39525;DHT22;25203;50.754;6.978;2022-11-20T11:45:54;5.40;99.90
39525;DHT22;25203;50.754;6.978;2022-11-20T11:47:58;5.40;99.90
39525;DHT22;25203;50.754;6.978;2022-11-20T11:52:12;5.50;99.90
39525;DHT22;25203;50.754;6.978;2022-11-20T11:54:19;5.60;99.90
39525;DHT22;25203;50.754;6.978;2022-11-20T11:56:20;5.80;99.90
39525;DHT22;25203;50.754;6.978;2022-11-20T11:58:44;5.90;99.90
39525;DHT22;25203;50.754;6.978;2022-11-20T12:03:39;6.00;99.90
39525;DHT22;25203;50.754;6.978;2022-11-20T12:05:47;6.00;99.90
39525;DHT22;25203;50.754;6.978;2022-11-20T12:08:15;6.00;99.90
39525;DHT22;25203;50.754;6.978;2022-11-20T12:12:42;6.00;99.90
39525;DHT22;25203;50.754;6.978;2022-11-20T12:14:47;6.00;99.90
39525;DHT22;25203;50.754;6.978;2022-11-20T12:16:50;6.00;99.90
39525;DHT22;25203;50.754;6.978;2022-11-20T12:18:53;6.10;99.90
39525;DHT22;25203;50.754;6.978;2022-11-20T12:21:18;6.20;99.90
39525;DHT22;25203;50.754;6.978;2022-11-20T12:23:36;6.30;99.90
39525;DHT22;25203;50.754;6.978;2022-11-20T12:25:43;6.50;99.90
39525;DHT22;25203;50.754;6.978;2022-11-20T12:30:16;6.60;99.90
39525;DHT22;25203;50.754;6.978;2022-11-20T12:36:37;6.40;99.90
39525;DHT22;25203;50.754;6.978;2022-11-20T12:43:23;6.50;99.90
39525;DHT22;25203;50.754;6.978;2022-11-20T12:46:02;6.50;99.90
39525;DHT22;25203;50.754;6.978;2022-11-20T12:50:45;6.50;99.90
39525;DHT22;25203;50.754;6.978;2022-11-20T13:00:07;6.30;99.90
39525;DHT22;25203;50.754;6.978;2022-11-20T13:02:33;6.30;99.90
39525;DHT22;25203;50.754;6.978;2022-11-20T13:06:37;6.40;99.90
39525;DHT22;25203;50.754;6.978;2022-11-20T13:08:40;6.40;99.90
39525;DHT22;25203;50.754;6.978;2022-11-20T13:10:51;6.50;99.90
39525;DHT22;25203;50.754;6.978;2022-11-20T13:17:36;6.60;99.90
39525;DHT22;25203;50.754;6.978;2022-11-20T13:19:38;6.60;99.90
39525;DHT22;25203;50.754;6.978;2022-11-20T13:21:42;6.60;99.90
39525;DHT22;25203;50.754;6.978;2022-11-20T13:23:43;6.60;99.90
39525;DHT22;25203;50.754;6.978;2022-11-20T13:25:44;6.60;99.90
39525;DHT22;25203;50.754;6.978;2022-11-20T13:27:48;6.60;99.90
39525;DHT22;25203;50.754;6.978;2022-11-20T13:30:23;6.70;99.90
39525;DHT22;25203;50.754;6.978;2022-11-20T13:32:24;6.60;99.90
39525;DHT22;25203;50.754;6.978;2022-11-20T13:34:26;6.60;99.90
39525;DHT22;25203;50.754;6.978;2022-11-20T13:36:28;6.50;99.90
39525;DHT22;25203;50.754;6.978;2022-11-20T13:38:50;6.50;99.90
39525;DHT22;25203;50.754;6.978;2022-11-20T13:40:55;6.50;99.90
39525;DHT22;25203;50.754;6.978;2022-11-20T13:43:15;6.40;99.90
39525;DHT22;25203;50.754;6.978;2022-11-20T13:47:25;6.50;99.90
39525;DHT22;25203;50.754;6.978;2022-11-20T13:49:31;6.50;99.90
39525;DHT22;25203;50.754;6.978;2022-11-20T13:54:38;6.50;99.90
39525;DHT22;25203;50.754;6.978;2022-11-20T14:02:02;6.60;99.90
39525;DHT22;25203;50.754;6.978;2022-11-20T14:04:09;6.60;99.90
39525;DHT22;25203;50.754;6.978;2022-11-20T14:06:31;6.60;99.90
39525;DHT22;25203;50.754;6.978;2022-11-20T14:08:46;6.60;99.90
39525;DHT22;25203;50.754;6.978;2022-11-20T14:10:47;6.60;99.90
39525;DHT22;25203;50.754;6.978;2022-11-20T14:12:48;6.60;99.90
39525;DHT22;25203;50.754;6.978;2022-11-20T14:14:51;6.60;99.90
39525;DHT22;25203;50.754;6.978;2022-11-20T14:16:52;6.70;99.90
39525;DHT22;25203;50.754;6.978;2022-11-20T14:18:54;6.80;99.90
39525;DHT22;25203;50.754;6.978;2022-11-20T14:20:55;6.80;99.90
39525;DHT22;25203;50.754;6.978;2022-11-20T14:22:56;6.70;99.90
39525;DHT22;25203;50.754;6.978;2022-11-20T14:27:18;6.80;99.90
39525;DHT22;25203;50.754;6.978;2022-11-20T14:29:27;6.80;99.90
39525;DHT22;25203;50.754;6.978;2022-11-20T14:31:28;6.80;99.90